Time;durP1;ratioP1;P1;durP2;ratioP2;P2;SDS_P1;SDS_P2;PMS_P1;PMS_P2;Temp;Humidity;BMP_temperature;BMP_pressure;BME280_temperature;BME280_humidity;BME280_pressure;Samples;Min_cycle;Max_cycle;Signal;HPM_P1;HPM_P2
2022/11/06 00:00:30;;;;;;;10.23;4.93;;;;;;;;;;5015169;28;20029;-76
2022/11/06 00:02:58;;;;;;;12.57;5.47;;;;;;;;;;5013287;28;20492;-75
2022/11/06 00:08:08;;;;;;;11.40;4.87;;;;;;;;;;5015402;28;20055;-75
2022/11/06 00:10:34;;;;;;;10.23;4.73;;;;;;;;;;5015469;28;20038;-75
2022/11/06 00:13:01;;;;;;;9.47;4.60;;;;;;;;;;5015046;28;20033;-75
2022/11/06 00:15:27;;;;;;;9.33;5.27;;;;;;;;;;5018138;28;20083;-74
2022/11/06 00:17:53;;;;;;;6.70;3.67;;;;;;;;;;5015144;28;20449;-75
2022/11/06 00:20:19;;;;;;;10.83;4.93;;;;;;;;;;5016893;28;20022;-75
2022/11/06 00:22:45;;;;;;;8.10;3.80;;;;;;;;;;5024945;28;20084;-75
2022/11/06 00:25:14;;;;;;;8.93;4.50;;;;;;;;;;5016328;28;20030;-76
2022/11/06 00:27:42;;;;;;;18.00;5.23;;;;;;;;;;5016828;28;20029;-75
2022/11/06 00:30:10;;;;;;;10.77;4.17;;;;;;;;;;5024286;28;20037;-76
2022/11/06 00:32:36;;;;;;;8.73;4.13;;;;;;;;;;5026136;28;20033;-75
2022/11/06 00:35:02;;;;;;;9.70;4.13;;;;;;;;;;5031765;28;20033;-76
2022/11/06 00:37:28;;;;;;;8.40;3.77;;;;;;;;;;5023360;28;20033;-75
2022/11/06 00:39:58;;;;;;;8.73;4.43;;;;;;;;;;5028175;28;20065;-76
2022/11/06 00:42:24;;;;;;;8.87;4.10;;;;;;;;;;5016043;28;20038;-76
2022/11/06 00:44:50;;;;;;;10.87;4.20;;;;;;;;;;5017698;28;20421;-75
2022/11/06 00:47:18;;;;;;;8.10;4.43;;;;;;;;;;5028822;28;20038;-76
2022/11/06 00:49:44;;;;;;;9.10;4.57;;;;;;;;;;5014401;28;20172;-75
2022/11/06 00:52:13;;;;;;;8.03;3.90;;;;;;;;;;5029960;28;20040;-75
2022/11/06 00:54:39;;;;;;;12.97;4.27;;;;;;;;;;5033562;28;20515;-76
2022/11/06 00:57:05;;;;;;;7.63;3.97;;;;;;;;;;5015610;28;20059;-75
2022/11/06 00:59:32;;;;;;;8.93;4.67;;;;;;;;;;5015216;28;20034;-75
2022/11/06 01:01:58;;;;;;;8.83;3.83;;;;;;;;;;5015918;28;20041;-76
2022/11/06 01:04:24;;;;;;;13.67;4.23;;;;;;;;;;5031479;28;20025;-74
2022/11/06 01:06:52;;;;;;;9.13;4.83;;;;;;;;;;5026433;28;20053;-74
2022/11/06 01:09:20;;;;;;;14.87;5.17;;;;;;;;;;5028181;28;20042;-74
2022/11/06 01:11:47;;;;;;;7.87;4.03;;;;;;;;;;5029639;28;20471;-76
2022/11/06 01:14:16;;;;;;;13.10;4.97;;;;;;;;;;5015203;28;20185;-75
2022/11/06 01:16:43;;;;;;;16.53;4.80;;;;;;;;;;5014000;28;20037;-76
2022/11/06 01:19:13;;;;;;;10.40;4.90;;;;;;;;;;5027012;28;20029;-75
2022/11/06 01:21:41;;;;;;;13.23;5.47;;;;;;;;;;5013259;28;20442;-75
2022/11/06 01:24:09;;;;;;;13.83;5.43;;;;;;;;;;5015018;28;20025;-74
2022/11/06 01:26:35;;;;;;;20.27;6.27;;;;;;;;;;5026473;28;20033;-75
2022/11/06 01:29:02;;;;;;;14.33;6.60;;;;;;;;;;5014840;28;20029;-76
2022/11/06 01:31:29;;;;;;;14.23;6.17;;;;;;;;;;5013654;28;20026;-76
2022/11/06 01:33:56;;;;;;;17.97;6.60;;;;;;;;;;5026259;28;20596;-75
2022/11/06 01:36:22;;;;;;;10.60;5.30;;;;;;;;;;5011245;28;20060;-75
2022/11/06 01:38:49;;;;;;;20.43;6.00;;;;;;;;;;5014386;28;20438;-75
2022/11/06 01:41:20;;;;;;;15.03;4.87;;;;;;;;;;5012455;28;20377;-76
2022/11/06 01:43:51;;;;;;;16.80;6.33;;;;;;;;;;5014287;28;20026;-76
2022/11/06 01:46:17;;;;;;;8.00;4.37;;;;;;;;;;5022835;28;20377;-76
2022/11/06 01:48:45;;;;;;;13.63;4.47;;;;;;;;;;5012799;28;20029;-76
2022/11/06 01:51:12;;;;;;;13.70;4.30;;;;;;;;;;5013183;28;20131;-76
2022/11/06 01:53:38;;;;;;;8.67;3.80;;;;;;;;;;5015278;28;20068;-75
2022/11/06 01:56:07;;;;;;;11.53;4.27;;;;;;;;;;5011874;28;20049;-75
2022/11/06 01:58:34;;;;;;;9.33;3.83;;;;;;;;;;5013095;28;20044;-76
2022/11/06 02:01:01;;;;;;;8.27;3.80;;;;;;;;;;5014750;28;20034;-76
2022/11/06 02:03:27;;;;;;;7.27;3.43;;;;;;;;;;5027360;28;20041;-75
2022/11/06 02:05:54;;;;;;;13.00;3.80;;;;;;;;;;5014581;28;20587;-76
2022/11/06 02:08:21;;;;;;;9.60;3.73;;;;;;;;;;5022066;28;20038;-76
2022/11/06 02:10:50;;;;;;;12.00;3.60;;;;;;;;;;5029244;28;20488;-74
2022/11/06 02:13:16;;;;;;;12.00;3.53;;;;;;;;;;5013760;28;20029;-75
2022/11/06 02:15:47;;;;;;;8.67;4.07;;;;;;;;;;5025212;28;20489;-75
2022/11/06 02:18:40;;;;;;;13.48;3.38;;;;;;;;;;5014919;28;20128;-74
2022/11/06 02:21:06;;;;;;;11.77;3.08;;;;;;;;;;5028416;28;20394;-75
2022/11/06 02:23:51;;;;;;;12.23;2.80;;;;;;;;;;5015287;28;20025;-74
2022/11/06 02:26:36;;;;;;;11.10;3.80;;;;;;;;;;5012133;28;20033;-75
2022/11/06 02:29:11;;;;;;;19.47;3.63;;;;;;;;;;5014284;28;20079;-75
2022/11/06 02:31:38;;;;;;;12.87;3.00;;;;;;;;;;5014922;28;20018;-76
2022/11/06 02:34:06;;;;;;;10.60;2.90;;;;;;;;;;5013670;28;20548;-76
2022/11/06 02:36:35;;;;;;;8.00;3.03;;;;;;;;;;5022009;28;20030;-75
2022/11/06 02:39:07;;;;;;;12.03;3.40;;;;;;;;;;5013504;28;20591;-76
2022/11/06 02:41:35;;;;;;;12.82;3.15;;;;;;;;;;5030741;28;20022;-75
2022/11/06 02:44:02;;;;;;;8.83;3.03;;;;;;;;;;5020485;28;20057;-76
2022/11/06 02:46:31;;;;;;;8.20;2.93;;;;;;;;;;5014906;28;20034;-75
2022/11/06 02:49:06;;;;;;;9.83;3.37;;;;;;;;;;5014381;28;20029;-76
2022/11/06 02:51:34;;;;;;;7.87;3.40;;;;;;;;;;5013235;28;20026;-74
2022/11/06 02:54:02;;;;;;;6.13;3.27;;;;;;;;;;5013197;28;20033;-75
2022/11/06 02:56:29;;;;;;;7.03;3.20;;;;;;;;;;5015683;28;20030;-76
2022/11/06 02:58:58;;;;;;;13.50;3.27;;;;;;;;;;5026910;28;20462;-75
2022/11/06 03:01:24;;;;;;;10.70;3.27;;;;;;;;;;5015987;28;20052;-76
2022/11/06 03:03:54;;;;;;;8.70;3.37;;;;;;;;;;5025839;28;20042;-76
2022/11/06 03:06:28;;;;;;;9.97;3.07;;;;;;;;;;5019492;28;20031;-76
2022/11/06 03:09:14;;;;;;;16.47;3.47;;;;;;;;;;5018438;28;20042;-76
2022/11/06 03:11:40;;;;;;;11.10;3.50;;;;;;;;;;5013952;28;20049;-75
2022/11/06 03:14:12;;;;;;;9.50;3.40;;;;;;;;;;5017468;28;20037;-75
2022/11/06 03:16:38;;;;;;;10.93;3.37;;;;;;;;;;5030261;28;20030;-74
2022/11/06 03:19:07;;;;;;;8.67;3.13;;;;;;;;;;5019798;28;20394;-76
2022/11/06 03:21:48;;;;;;;8.83;3.03;;;;;;;;;;5029611;28;20077;-76
2022/11/06 03:24:17;;;;;;;17.07;3.97;;;;;;;;;;5031993;28;20041;-76
2022/11/06 03:26:48;;;;;;;8.20;3.40;;;;;;;;;;5029117;28;20046;-75
2022/11/06 03:29:17;;;;;;;11.97;3.67;;;;;;;;;;5017547;28;20038;-75
2022/11/06 03:31:52;;;;;;;11.33;4.37;;;;;;;;;;5019162;28;20128;-75
2022/11/06 03:34:37;;;;;;;8.93;3.00;;;;;;;;;;5024581;28;20042;-75
2022/11/06 03:37:09;;;;;;;17.30;3.50;;;;;;;;;;5013574;28;20338;-75
2022/11/06 03:39:37;;;;;;;8.10;3.28;;;;;;;;;;5019126;28;20494;-76
2022/11/06 03:42:03;;;;;;;12.10;3.23;;;;;;;;;;5030852;28;20033;-75
2022/11/06 03:44:30;;;;;;;10.83;3.27;;;;;;;;;;5024889;28;20513;-75
2022/11/06 03:47:22;;;;;;;7.20;2.70;;;;;;;;;;5025107;28;20176;-75
2022/11/06 03:49:51;;;;;;;13.05;2.80;;;;;;;;;;5014462;28;20131;-76
2022/11/06 03:52:21;;;;;;;10.77;2.47;;;;;;;;;;5028040;28;20044;-76
2022/11/06 03:55:11;;;;;;;8.27;2.53;;;;;;;;;;5028446;28;20485;-75
2022/11/06 03:57:50;;;;;;;9.47;3.00;;;;;;;;;;5018313;28;20041;-75
2022/11/06 04:00:19;;;;;;;10.17;3.40;;;;;;;;;;5030266;28;20337;-75
2022/11/06 04:02:47;;;;;;;7.47;2.80;;;;;;;;;;5028651;28;20367;-76
2022/11/06 04:05:24;;;;;;;11.20;2.97;;;;;;;;;;5014243;28;20080;-76
2022/11/06 04:16:10;;;;;;;10.70;3.73;;;;;;;;;;5017530;28;20057;-76
2022/11/06 04:18:36;;;;;;;12.23;4.33;;;;;;;;;;5017437;28;20092;-76
2022/11/06 04:21:21;;;;;;;9.40;3.33;;;;;;;;;;5014654;28;20450;-76
2022/11/06 04:26:34;;;;;;;12.50;3.93;;;;;;;;;;5017759;28;20037;-75
2022/11/06 04:26:37;;;;;;;11.37;3.90;;;;;;;;;;5017529;28;20029;-76
2022/11/06 04:29:03;;;;;;;12.87;3.57;;;;;;;;;;5015358;28;20133;-76
2022/11/06 04:31:53;;;;;;;11.03;4.20;;;;;;;;;;5015692;28;20633;-75
2022/11/06 04:34:34;;;;;;;8.33;3.67;;;;;;;;;;5010386;28;20049;-76
2022/11/06 04:37:30;;;;;;;12.47;3.90;;;;;;;;;;5022700;28;21613;-75
2022/11/06 04:40:14;;;;;;;7.73;3.10;;;;;;;;;;4994977;28;20570;-75
2022/11/06 04:42:45;;;;;;;15.77;3.17;;;;;;;;;;5024757;28;20048;-75
2022/11/06 04:45:15;;;;;;;4.60;2.43;;;;;;;;;;5016616;28;20026;-76
2022/11/06 04:47:42;;;;;;;10.07;3.27;;;;;;;;;;5028778;28;20044;-74
2022/11/06 04:50:08;;;;;;;8.37;2.63;;;;;;;;;;5014751;28;20049;-75
2022/11/06 04:52:36;;;;;;;7.07;3.33;;;;;;;;;;5018282;28;20072;-76
2022/11/06 04:55:02;;;;;;;7.70;2.73;;;;;;;;;;5014438;28;20049;-75
2022/11/06 04:57:28;;;;;;;9.37;2.40;;;;;;;;;;5018580;28;20034;-76
2022/11/06 04:59:55;;;;;;;8.23;2.97;;;;;;;;;;5032246;28;20052;-76
2022/11/06 05:02:21;;;;;;;7.00;2.60;;;;;;;;;;5028575;28;20041;-75
2022/11/06 05:04:47;;;;;;;6.50;2.63;;;;;;;;;;5030207;28;20034;-76
2022/11/06 05:07:14;;;;;;;7.80;3.03;;;;;;;;;;5028216;28;21581;-76
2022/11/06 05:09:44;;;;;;;15.13;3.00;;;;;;;;;;5015830;28;20044;-76
2022/11/06 05:12:10;;;;;;;6.53;2.80;;;;;;;;;;5013609;28;20501;-75
2022/11/06 05:14:36;;;;;;;6.23;2.87;;;;;;;;;;5013964;28;20476;-76
2022/11/06 05:17:02;;;;;;;4.53;2.60;;;;;;;;;;5012225;28;20083;-76
2022/11/06 05:19:28;;;;;;;10.73;3.00;;;;;;;;;;5017019;28;20160;-75
2022/11/06 05:24:39;;;;;;;6.77;3.03;;;;;;;;;;5014820;28;20642;-76
2022/11/06 05:27:05;;;;;;;6.83;2.57;;;;;;;;;;5016176;28;20034;-76
2022/11/06 05:29:31;;;;;;;11.83;3.20;;;;;;;;;;5016329;28;20350;-75
2022/11/06 05:31:57;;;;;;;11.97;4.17;;;;;;;;;;5029080;28;20040;-76
2022/11/06 05:34:23;;;;;;;7.17;2.83;;;;;;;;;;5015051;28;20026;-74
2022/11/06 05:36:49;;;;;;;9.80;3.53;;;;;;;;;;5027163;28;20034;-75
2022/11/06 05:39:15;;;;;;;7.57;3.07;;;;;;;;;;5012806;28;20041;-76
2022/11/06 05:41:43;;;;;;;8.37;3.00;;;;;;;;;;5015019;28;20037;-75
2022/11/06 05:44:09;;;;;;;9.80;3.57;;;;;;;;;;5024986;28;20029;-76
2022/11/06 05:46:35;;;;;;;10.03;2.87;;;;;;;;;;5027837;28;20044;-75
2022/11/06 05:49:03;;;;;;;8.50;3.07;;;;;;;;;;5014505;28;20038;-76
2022/11/06 05:51:29;;;;;;;13.57;2.70;;;;;;;;;;5013916;28;20030;-76
2022/11/06 05:53:57;;;;;;;13.50;4.53;;;;;;;;;;5023536;28;20042;-76
2022/11/06 05:56:23;;;;;;;10.90;4.10;;;;;;;;;;5015738;28;20057;-76
2022/11/06 05:58:49;;;;;;;12.57;3.30;;;;;;;;;;5014775;28;20070;-76
2022/11/06 06:01:15;;;;;;;7.50;2.97;;;;;;;;;;5024428;28;20040;-75
2022/11/06 06:03:41;;;;;;;17.77;3.40;;;;;;;;;;5022355;28;20061;-76
2022/11/06 06:06:07;;;;;;;10.70;3.43;;;;;;;;;;5022481;28;20489;-76
2022/11/06 06:08:35;;;;;;;11.63;3.07;;;;;;;;;;5029805;28;20033;-76
2022/11/06 06:11:04;;;;;;;13.30;4.37;;;;;;;;;;5022766;28;20034;-75
2022/11/06 06:13:30;;;;;;;10.70;4.17;;;;;;;;;;5013855;28;20377;-76
2022/11/06 06:16:00;;;;;;;13.90;4.00;;;;;;;;;;5014878;28;20037;-75
2022/11/06 06:18:26;;;;;;;18.33;5.30;;;;;;;;;;5013158;28;21677;-76
2022/11/06 06:20:54;;;;;;;13.97;3.50;;;;;;;;;;5012738;28;20022;-75
2022/11/06 06:23:20;;;;;;;12.53;3.67;;;;;;;;;;5014473;28;20041;-76
2022/11/06 06:25:46;;;;;;;12.27;3.93;;;;;;;;;;5014229;28;20030;-74
2022/11/06 06:28:15;;;;;;;14.83;4.60;;;;;;;;;;5024056;28;20049;-76
2022/11/06 06:30:41;;;;;;;11.47;4.93;;;;;;;;;;5015616;28;20030;-77
2022/11/06 06:33:07;;;;;;;18.10;4.13;;;;;;;;;;5029783;28;20416;-74
2022/11/06 06:35:33;;;;;;;14.47;5.20;;;;;;;;;;5028756;28;20025;-76
2022/11/06 06:38:02;;;;;;;11.47;5.50;;;;;;;;;;5018935;28;20030;-76
2022/11/06 06:40:29;;;;;;;11.90;4.10;;;;;;;;;;5019450;28;20025;-74
2022/11/06 06:42:56;;;;;;;11.27;4.87;;;;;;;;;;5025983;28;20103;-75
2022/11/06 06:45:22;;;;;;;12.03;4.43;;;;;;;;;;5019228;28;20029;-75
2022/11/06 06:47:48;;;;;;;11.20;4.07;;;;;;;;;;5017011;28;20030;-76
2022/11/06 06:50:14;;;;;;;13.67;3.43;;;;;;;;;;5016401;28;20045;-76
2022/11/06 06:52:40;;;;;;;10.20;3.30;;;;;;;;;;5030370;28;20042;-75
2022/11/06 06:55:06;;;;;;;9.63;3.70;;;;;;;;;;5019153;28;20172;-76
2022/11/06 06:57:32;;;;;;;9.40;3.77;;;;;;;;;;5016539;28;20479;-76
2022/11/06 06:59:58;;;;;;;10.07;3.93;;;;;;;;;;5018627;28;20347;-76
2022/11/06 07:02:24;;;;;;;9.87;3.50;;;;;;;;;;5029851;28;20672;-76
2022/11/06 07:04:50;;;;;;;8.83;3.43;;;;;;;;;;5018210;28;20033;-76
2022/11/06 07:07:17;;;;;;;11.90;3.80;;;;;;;;;;5017141;28;20042;-75
2022/11/06 07:09:43;;;;;;;18.03;4.63;;;;;;;;;;5017068;28;20482;-76
2022/11/06 07:12:14;;;;;;;11.40;3.50;;;;;;;;;;5018026;28;20394;-76
2022/11/06 07:14:40;;;;;;;9.47;3.43;;;;;;;;;;5026054;28;20120;-76
2022/11/06 07:17:06;;;;;;;10.50;3.77;;;;;;;;;;5018455;28;20063;-75
2022/11/06 07:19:32;;;;;;;9.73;2.63;;;;;;;;;;5029210;28;20029;-76
2022/11/06 07:21:58;;;;;;;9.30;3.97;;;;;;;;;;5017482;28;20041;-75
2022/11/06 07:24:26;;;;;;;10.40;3.77;;;;;;;;;;5025720;28;20044;-75
2022/11/06 07:26:52;;;;;;;6.90;2.80;;;;;;;;;;5028223;28;20041;-76
2022/11/06 07:29:19;;;;;;;15.23;3.83;;;;;;;;;;5014681;28;20529;-75
2022/11/06 07:31:45;;;;;;;8.20;3.93;;;;;;;;;;5019666;28;20030;-75
2022/11/06 07:34:11;;;;;;;10.40;3.53;;;;;;;;;;5024952;28;20022;-77
2022/11/06 07:36:37;;;;;;;4.97;2.73;;;;;;;;;;5016114;28;20041;-75
2022/11/06 07:39:03;;;;;;;17.70;3.30;;;;;;;;;;5032522;28;20523;-75
2022/11/06 07:41:29;;;;;;;11.70;4.10;;;;;;;;;;5017751;28;20038;-76
2022/11/06 07:43:55;;;;;;;10.07;2.97;;;;;;;;;;5017527;28;20037;-76
2022/11/06 07:46:23;;;;;;;9.53;2.80;;;;;;;;;;5016129;28;20100;-76
2022/11/06 07:48:51;;;;;;;15.57;3.67;;;;;;;;;;5013938;28;20034;-75
2022/11/06 07:51:17;;;;;;;10.37;2.77;;;;;;;;;;5024665;28;20029;-76
2022/11/06 07:53:46;;;;;;;7.13;3.20;;;;;;;;;;5014930;28;20033;-76
2022/11/06 07:56:12;;;;;;;5.43;2.50;;;;;;;;;;5029251;28;20175;-76
2022/11/06 07:58:38;;;;;;;6.67;2.70;;;;;;;;;;5016011;28;20344;-77
2022/11/06 08:01:04;;;;;;;10.10;3.83;;;;;;;;;;5022659;28;20049;-75
2022/11/06 08:03:30;;;;;;;9.77;4.63;;;;;;;;;;5027941;28;20617;-77
2022/11/06 08:05:57;;;;;;;9.93;2.40;;;;;;;;;;5016822;28;20450;-77
2022/11/06 08:08:23;;;;;;;9.20;3.00;;;;;;;;;;5017603;28;20425;-76
2022/11/06 08:10:50;;;;;;;9.73;2.63;;;;;;;;;;5021447;28;20192;-75
2022/11/06 08:13:17;;;;;;;8.10;3.60;;;;;;;;;;5032614;28;20029;-76
2022/11/06 08:15:43;;;;;;;7.13;2.40;;;;;;;;;;5021428;28;20048;-76
2022/11/06 08:18:10;;;;;;;9.37;2.80;;;;;;;;;;5013294;28;20044;-77
2022/11/06 08:20:37;;;;;;;9.33;2.50;;;;;;;;;;5021812;28;21660;-75
2022/11/06 08:23:05;;;;;;;9.60;4.20;;;;;;;;;;5029284;28;20025;-76
2022/11/06 08:25:32;;;;;;;13.87;2.40;;;;;;;;;;5019356;28;20615;-76
2022/11/06 08:27:59;;;;;;;21.43;2.33;;;;;;;;;;5024940;28;20042;-76
2022/11/06 08:30:26;;;;;;;12.93;4.10;;;;;;;;;;5015411;28;20129;-76
2022/11/06 08:32:52;;;;;;;12.37;3.37;;;;;;;;;;5025604;28;20029;-75
2022/11/06 08:35:18;;;;;;;8.77;2.47;;;;;;;;;;5030895;28;20040;-73
2022/11/06 08:37:44;;;;;;;9.87;2.07;;;;;;;;;;5022532;28;20044;-74
2022/11/06 08:40:11;;;;;;;10.60;2.63;;;;;;;;;;5014239;28;20022;-77
2022/11/06 08:42:37;;;;;;;5.93;2.27;;;;;;;;;;5028945;28;20429;-76
2022/11/06 08:45:03;;;;;;;6.17;2.40;;;;;;;;;;5016914;28;20041;-75
2022/11/06 08:47:31;;;;;;;6.23;2.17;;;;;;;;;;5015494;28;20037;-75
2022/11/06 08:49:57;;;;;;;9.47;2.83;;;;;;;;;;5012944;28;20044;-75
2022/11/06 08:52:26;;;;;;;8.57;2.40;;;;;;;;;;5023435;28;20052;-76
2022/11/06 08:54:55;;;;;;;7.27;2.10;;;;;;;;;;5015294;28;20069;-75
2022/11/06 08:57:21;;;;;;;17.83;3.17;;;;;;;;;;5016415;28;20057;-75
2022/11/06 08:59:47;;;;;;;9.40;2.07;;;;;;;;;;5012750;28;20065;-76
2022/11/06 09:02:13;;;;;;;12.07;2.70;;;;;;;;;;5027485;28;20173;-75
2022/11/06 09:04:39;;;;;;;17.90;3.47;;;;;;;;;;5014036;28;20045;-74
2022/11/06 09:07:06;;;;;;;8.37;2.20;;;;;;;;;;5015226;28;20052;-76
2022/11/06 09:09:31;;;;;;;6.93;1.90;;;;;;;;;;5015509;28;20030;-74
2022/11/06 09:11:59;;;;;;;7.93;3.53;;;;;;;;;;5027163;28;20112;-76
2022/11/06 09:14:25;;;;;;;6.53;2.20;;;;;;;;;;5015421;28;20052;-76
2022/11/06 09:16:51;;;;;;;10.03;2.90;;;;;;;;;;5013038;28;20037;-75
2022/11/06 09:19:17;;;;;;;8.57;2.50;;;;;;;;;;5014408;28;20048;-75
2022/11/06 09:21:43;;;;;;;6.80;2.23;;;;;;;;;;5014560;28;20033;-75
2022/11/06 09:24:09;;;;;;;9.27;2.83;;;;;;;;;;5015634;28;20025;-75
2022/11/06 09:26:35;;;;;;;8.97;3.10;;;;;;;;;;5015864;28;20044;-75
2022/11/06 09:29:01;;;;;;;12.10;2.20;;;;;;;;;;5028556;28;20041;-76
2022/11/06 09:31:30;;;;;;;11.13;2.63;;;;;;;;;;5012769;28;20033;-76
2022/11/06 09:33:56;;;;;;;4.13;2.07;;;;;;;;;;5014498;28;20069;-76
2022/11/06 09:36:22;;;;;;;9.07;2.40;;;;;;;;;;5026340;28;21594;-75
2022/11/06 09:38:48;;;;;;;9.67;2.63;;;;;;;;;;5027202;28;20037;-75
2022/11/06 09:41:18;;;;;;;8.37;2.57;;;;;;;;;;5013932;28;20041;-75
2022/11/06 09:43:53;;;;;;;9.57;2.50;;;;;;;;;;5026650;28;20370;-75
2022/11/06 09:46:28;;;;;;;5.47;2.37;;;;;;;;;;5012140;28;20030;-75
2022/11/06 09:49:05;;;;;;;9.03;2.20;;;;;;;;;;5025353;28;20034;-74
2022/11/06 09:51:37;;;;;;;6.90;2.40;;;;;;;;;;5021720;28;20037;-76
2022/11/06 09:54:06;;;;;;;8.07;2.30;;;;;;;;;;5022615;28;20034;-75
2022/11/06 09:56:36;;;;;;;7.43;2.63;;;;;;;;;;5014184;28;20057;-76
2022/11/06 09:59:05;;;;;;;8.23;2.57;;;;;;;;;;5028137;28;20033;-76
2022/11/06 10:01:37;;;;;;;5.97;2.00;;;;;;;;;;5014911;28;20026;-75
2022/11/06 10:04:04;;;;;;;11.50;2.92;;;;;;;;;;5028612;28;20343;-75
2022/11/06 10:06:30;;;;;;;12.57;2.87;;;;;;;;;;5010617;28;20030;-76
2022/11/06 10:09:00;;;;;;;9.90;2.57;;;;;;;;;;5022496;28;20042;-76
2022/11/06 10:11:35;;;;;;;10.20;2.93;;;;;;;;;;5012708;28;20030;-76
2022/11/06 10:14:16;;;;;;;7.87;2.23;;;;;;;;;;5013171;28;20034;-76
2022/11/06 10:16:49;;;;;;;11.97;3.30;;;;;;;;;;5014520;28;21605;-76
2022/11/06 10:19:35;;;;;;;7.47;2.40;;;;;;;;;;5022992;28;20897;-74
2022/11/06 10:22:05;;;;;;;11.37;3.03;;;;;;;;;;5013044;28;20029;-74
2022/11/06 10:24:52;;;;;;;6.43;2.50;;;;;;;;;;5020488;28;20041;-75
2022/11/06 10:27:23;;;;;;;12.10;3.57;;;;;;;;;;5014450;28;20037;-75
2022/11/06 10:29:52;;;;;;;5.77;2.80;;;;;;;;;;5025089;28;20085;-75
2022/11/06 10:32:18;;;;;;;7.03;2.90;;;;;;;;;;5012417;28;20038;-75
2022/11/06 10:35:04;;;;;;;6.73;3.07;;;;;;;;;;5028384;28;20041;-74
2022/11/06 10:37:39;;;;;;;7.30;3.03;;;;;;;;;;5017068;28;20049;-76
2022/11/06 10:40:06;;;;;;;9.63;3.07;;;;;;;;;;5014640;28;20044;-75
2022/11/06 10:42:35;;;;;;;9.77;4.17;;;;;;;;;;5019249;28;20026;-75
2022/11/06 10:45:01;;;;;;;6.07;2.83;;;;;;;;;;5016065;28;20104;-75
2022/11/06 10:47:33;;;;;;;8.43;3.93;;;;;;;;;;5012780;28;20029;-76
2022/11/06 10:50:03;;;;;;;4.93;2.87;;;;;;;;;;5014171;28;20053;-75
2022/11/06 10:52:45;;;;;;;14.77;3.63;;;;;;;;;;5010545;28;20037;-75
2022/11/06 10:55:31;;;;;;;6.83;3.10;;;;;;;;;;5020308;28;20048;-76
2022/11/06 10:58:00;;;;;;;9.27;2.80;;;;;;;;;;5029344;28;20063;-75
2022/11/06 11:00:26;;;;;;;11.07;3.13;;;;;;;;;;5019685;28;20112;-76
2022/11/06 11:02:55;;;;;;;8.43;2.83;;;;;;;;;;5020968;28;20030;-76
2022/11/06 11:05:25;;;;;;;7.27;2.40;;;;;;;;;;5012381;28;20070;-76
2022/11/06 11:07:54;;;;;;;6.00;2.40;;;;;;;;;;5011498;28;20087;-75
2022/11/06 11:10:31;;;;;;;9.53;2.50;;;;;;;;;;5026372;28;20065;-76
2022/11/06 11:12:59;;;;;;;7.43;2.60;;;;;;;;;;5027010;28;20136;-75
2022/11/06 11:15:30;;;;;;;8.60;3.13;;;;;;;;;;5018311;28;20029;-75
2022/11/06 11:18:07;;;;;;;5.83;3.10;;;;;;;;;;5012289;28;20048;-76
2022/11/06 11:20:35;;;;;;;8.93;3.10;;;;;;;;;;5013202;28;20034;-75
2022/11/06 11:23:18;;;;;;;4.07;2.33;;;;;;;;;;5019390;28;20026;-75
2022/11/06 11:25:48;;;;;;;8.20;2.63;;;;;;;;;;5014358;28;20101;-76
2022/11/06 11:28:33;;;;;;;5.27;2.70;;;;;;;;;;5030096;28;20188;-76
2022/11/06 11:31:08;;;;;;;5.00;2.30;;;;;;;;;;5016268;28;20054;-75
2022/11/06 11:33:34;;;;;;;6.87;2.20;;;;;;;;;;5015041;28;20125;-76
2022/11/06 11:36:04;;;;;;;8.40;3.63;;;;;;;;;;5028071;28;20034;-76
2022/11/06 11:38:33;;;;;;;11.60;5.57;;;;;;;;;;5013847;28;20045;-76
2022/11/06 11:41:11;;;;;;;6.83;2.63;;;;;;;;;;5024571;28;20474;-75
2022/11/06 11:43:37;;;;;;;7.10;3.03;;;;;;;;;;5026979;28;20033;-75
2022/11/06 11:46:11;;;;;;;8.63;3.23;;;;;;;;;;5028488;28;20033;-75
2022/11/06 11:48:56;;;;;;;8.50;2.80;;;;;;;;;;5024212;28;21748;-76
2022/11/06 11:51:42;;;;;;;5.47;2.30;;;;;;;;;;5017448;28;20110;-75
2022/11/06 11:54:08;;;;;;;5.43;2.90;;;;;;;;;;5027718;28;20048;-73
2022/11/06 11:56:43;;;;;;;9.80;2.70;;;;;;;;;;5015199;28;20037;-76
2022/11/06 11:59:15;;;;;;;12.73;2.97;;;;;;;;;;5021817;28;20063;-75
2022/11/06 12:01:47;;;;;;;6.77;2.50;;;;;;;;;;5016687;28;20044;-74
2022/11/06 12:04:34;;;;;;;5.93;2.10;;;;;;;;;;5028465;28;20034;-75
2022/11/06 12:07:01;;;;;;;5.53;2.90;;;;;;;;;;5015459;28;20029;-74
2022/11/06 12:09:29;;;;;;;7.90;2.93;;;;;;;;;;5027930;28;20350;-75
2022/11/06 12:11:56;;;;;;;7.70;3.53;;;;;;;;;;5015817;28;20581;-76
2022/11/06 12:14:22;;;;;;;5.57;2.50;;;;;;;;;;5021288;28;20033;-75
2022/11/06 12:16:49;;;;;;;4.77;2.27;;;;;;;;;;5016269;28;20033;-74
2022/11/06 12:19:17;;;;;;;6.43;2.00;;;;;;;;;;5013860;28;20096;-74
2022/11/06 12:21:48;;;;;;;8.07;2.23;;;;;;;;;;5018302;28;20036;-75
2022/11/06 12:24:17;;;;;;;6.37;2.27;;;;;;;;;;5018354;28;20041;-76
2022/11/06 12:26:59;;;;;;;6.03;2.60;;;;;;;;;;5030505;28;20034;-75
2022/11/06 12:29:25;;;;;;;11.30;2.50;;;;;;;;;;5014524;28;20056;-76
2022/11/06 12:32:09;;;;;;;4.40;2.13;;;;;;;;;;5023232;28;20398;-76
2022/11/06 12:34:47;;;;;;;6.40;2.00;;;;;;;;;;5020731;28;20133;-75
2022/11/06 12:37:13;;;;;;;6.53;2.00;;;;;;;;;;5016108;28;20092;-75
2022/11/06 12:39:43;;;;;;;6.23;1.80;;;;;;;;;;5027636;28;20045;-75
2022/11/06 12:42:11;;;;;;;9.90;2.80;;;;;;;;;;5014849;28;20168;-76
2022/11/06 12:44:38;;;;;;;4.67;2.40;;;;;;;;;;5014144;28;20028;-75
2022/11/06 12:47:13;;;;;;;6.60;2.37;;;;;;;;;;5016490;28;20029;-76
2022/11/06 12:49:48;;;;;;;6.83;1.50;;;;;;;;;;5013722;28;20033;-75
2022/11/06 12:52:24;;;;;;;12.52;2.53;;;;;;;;;;5014463;28;20038;-76
2022/11/06 12:55:02;;;;;;;5.43;1.70;;;;;;;;;;5021141;28;20026;-75
2022/11/06 12:57:56;;;;;;;3.28;1.45;;;;;;;;;;5014831;28;20041;-76
2022/11/06 13:00:26;;;;;;;4.70;1.65;;;;;;;;;;5025344;28;20043;-76
2022/11/06 13:02:58;;;;;;;3.03;1.40;;;;;;;;;;5013868;28;20152;-76
2022/11/06 13:05:43;;;;;;;4.38;1.75;;;;;;;;;;5017055;28;20032;-77
2022/11/06 13:08:12;;;;;;;4.00;1.42;;;;;;;;;;5014642;28;20029;-75
2022/11/06 13:10:44;;;;;;;6.27;1.60;;;;;;;;;;5029515;28;20037;-75
2022/11/06 13:13:29;;;;;;;2.97;1.52;;;;;;;;;;5026575;28;20132;-74
2022/11/06 13:16:01;;;;;;;4.32;1.70;;;;;;;;;;5014740;28;20029;-76
2022/11/06 13:18:47;;;;;;;4.13;1.60;;;;;;;;;;5025998;28;20352;-75
2022/11/06 13:21:13;;;;;;;4.00;1.33;;;;;;;;;;5017799;28;20122;-75
2022/11/06 13:23:39;;;;;;;6.85;1.73;;;;;;;;;;5013847;28;20135;-76
2022/11/06 13:26:12;;;;;;;5.53;2.13;;;;;;;;;;5014200;28;20859;-77
2022/11/06 13:28:48;;;;;;;3.13;1.55;;;;;;;;;;5028385;28;20044;-77
2022/11/06 13:31:19;;;;;;;6.20;1.77;;;;;;;;;;5015718;28;20030;-76
2022/11/06 13:33:48;;;;;;;4.95;1.38;;;;;;;;;;5014033;28;20084;-75
2022/11/06 13:36:14;;;;;;;4.07;1.47;;;;;;;;;;5016591;28;20038;-77
2022/11/06 13:38:47;;;;;;;2.97;1.37;;;;;;;;;;5026834;28;20038;-76
2022/11/06 13:41:15;;;;;;;7.07;1.80;;;;;;;;;;5012763;28;20022;-76
2022/11/06 13:43:43;;;;;;;4.68;1.60;;;;;;;;;;5012521;28;20072;-76
2022/11/06 13:46:24;;;;;;;6.10;2.00;;;;;;;;;;5014000;28;20018;-76
2022/11/06 13:48:54;;;;;;;3.38;1.10;;;;;;;;;;5013361;28;20029;-76
2022/11/06 13:51:23;;;;;;;6.63;1.60;;;;;;;;;;5014932;28;20034;-76
2022/11/06 13:54:08;;;;;;;4.43;1.50;;;;;;;;;;5014367;28;20092;-76
2022/11/06 13:56:53;;;;;;;4.70;1.73;;;;;;;;;;5013456;28;20466;-76
2022/11/06 13:59:38;;;;;;;5.87;1.90;;;;;;;;;;5025195;28;20100;-75
2022/11/06 14:02:19;;;;;;;3.43;1.43;;;;;;;;;;5014552;28;20382;-75
2022/11/06 14:04:51;;;;;;;5.43;1.70;;;;;;;;;;5013912;28;20159;-77
2022/11/06 14:07:20;;;;;;;5.45;1.83;;;;;;;;;;5014956;28;20451;-75
2022/11/06 14:09:47;;;;;;;5.07;1.60;;;;;;;;;;5012708;28;20026;-76
2022/11/06 14:12:19;;;;;;;6.63;1.73;;;;;;;;;;5025722;28;20026;-76
2022/11/06 14:14:45;;;;;;;4.45;1.80;;;;;;;;;;5010607;28;20036;-77
2022/11/06 14:17:16;;;;;;;3.30;1.50;;;;;;;;;;5029560;28;20030;-75
2022/11/06 14:19:59;;;;;;;3.43;1.37;;;;;;;;;;5012724;28;20030;-76
2022/11/06 14:22:32;;;;;;;7.20;2.00;;;;;;;;;;5025992;28;20037;-75
2022/11/06 14:24:59;;;;;;;3.23;1.90;;;;;;;;;;5021576;28;20025;-76
2022/11/06 14:27:25;;;;;;;3.43;1.27;;;;;;;;;;5015293;28;20096;-77
2022/11/06 14:30:01;;;;;;;3.83;1.87;;;;;;;;;;5020179;28;20033;-76
2022/11/06 14:32:30;;;;;;;4.80;1.77;;;;;;;;;;5012719;28;20045;-76
2022/11/06 14:34:59;;;;;;;2.80;1.40;;;;;;;;;;5026645;28;20092;-77
2022/11/06 14:37:25;;;;;;;3.50;1.60;;;;;;;;;;5028143;28;20800;-76
2022/11/06 14:39:53;;;;;;;8.63;2.57;;;;;;;;;;5015679;28;20079;-74
2022/11/06 14:42:23;;;;;;;5.70;2.20;;;;;;;;;;5012863;28;20045;-77
2022/11/06 14:44:53;;;;;;;3.23;1.50;;;;;;;;;;5014480;28;20030;-76
2022/11/06 14:47:39;;;;;;;3.30;1.67;;;;;;;;;;5021177;28;20026;-76
2022/11/06 14:50:06;;;;;;;5.97;1.53;;;;;;;;;;5013667;28;20046;-75
2022/11/06 14:52:42;;;;;;;4.87;1.60;;;;;;;;;;5031530;28;20053;-76
2022/11/06 14:55:08;;;;;;;4.80;2.20;;;;;;;;;;5028429;28;20064;-76
2022/11/06 14:57:40;;;;;;;4.03;2.17;;;;;;;;;;5018831;28;20034;-76
2022/11/06 15:00:07;;;;;;;4.65;1.20;;;;;;;;;;5030109;28;20045;-75
2022/11/06 15:02:34;;;;;;;5.70;1.53;;;;;;;;;;5026515;28;20029;-76
2022/11/06 15:05:13;;;;;;;4.80;1.30;;;;;;;;;;5033947;28;20029;-76
2022/11/06 15:07:39;;;;;;;4.07;1.47;;;;;;;;;;5031542;28;20038;-76